Time;durP1;ratioP1;P1;durP2;ratioP2;P2;SDS_P1;SDS_P2;PMS_P1;PMS_P2;Temp;Humidity;BMP_temperature;BMP_pressure;BME280_temperature;BME280_humidity;BME280_pressure;Samples;Min_cycle;Max_cycle;Signal;HPM_P1;HPM_P2
2022/10/02 00:01:50;;;;;;;13.63;3.10;;;12.50;76.00;;;;;;5094680;28;20425;-72
2022/10/02 00:04:36;;;;;;;12.00;2.80;;;12.50;76.10;;;;;;5095088;28;20066;-72
2022/10/02 00:07:09;;;;;;;10.40;2.45;;;12.50;76.10;;;;;;5080672;28;20032;-71
2022/10/02 00:09:41;;;;;;;8.95;2.40;;;12.50;76.00;;;;;;5080532;28;20395;-71
2022/10/02 00:12:13;;;;;;;11.48;3.15;;;12.50;76.00;;;;;;5084879;28;20046;-71
2022/10/02 00:14:41;;;;;;;7.35;2.50;;;12.50;75.90;;;;;;5094927;28;20035;-72
2022/10/02 00:17:21;;;;;;;11.80;2.70;;;12.50;75.80;;;;;;5094451;28;20053;-71
2022/10/02 00:19:51;;;;;;;9.75;2.15;;;12.60;75.80;;;;;;5094705;28;20050;-72
2022/10/02 00:22:26;;;;;;;8.48;2.47;;;12.60;75.70;;;;;;5093817;28;20047;-71
2022/10/02 00:24:57;;;;;;;9.13;2.38;;;12.60;75.60;;;;;;5077732;28;20397;-72
2022/10/02 00:27:50;;;;;;;6.32;1.73;;;12.60;75.50;;;;;;5094229;28;20052;-72
2022/10/02 00:30:17;;;;;;;13.98;3.00;;;12.60;75.30;;;;;;5094189;28;20050;-71
2022/10/02 00:33:25;;;;;;;7.57;2.05;;;12.60;75.30;;;;;;5077879;28;20036;-71
2022/10/02 00:36:02;;;;;;;7.07;1.88;;;12.60;75.00;;;;;;5080387;28;20134;-71
2022/10/02 00:38:36;;;;;;;7.45;2.22;;;12.60;75.00;;;;;;5094734;28;20043;-71
2022/10/02 00:41:15;;;;;;;8.80;1.80;;;12.60;74.90;;;;;;5077344;28;20047;-71
2022/10/02 00:43:46;;;;;;;7.07;1.70;;;12.60;74.80;;;;;;5077961;28;20498;-71
2022/10/02 00:46:27;;;;;;;11.48;1.98;;;12.60;74.70;;;;;;5094650;28;20395;-71
2022/10/02 00:48:59;;;;;;;6.80;1.70;;;12.60;74.60;;;;;;5094589;28;20048;-71
2022/10/02 00:51:35;;;;;;;8.93;1.85;;;12.60;74.50;;;;;;5094198;28;20483;-71
2022/10/02 00:54:24;;;;;;;6.63;1.70;;;12.60;74.50;;;;;;5094479;28;20174;-71
2022/10/02 00:57:10;;;;;;;8.70;1.80;;;12.60;74.50;;;;;;5095388;28;20047;-71
2022/10/02 00:59:58;;;;;;;10.90;2.47;;;12.60;74.50;;;;;;5097272;28;20486;-71
2022/10/02 01:02:30;;;;;;;6.50;1.50;;;12.60;74.60;;;;;;5097787;28;20039;-71
2022/10/02 01:05:02;;;;;;;6.55;1.58;;;12.50;74.60;;;;;;5097921;28;20114;-71
2022/10/02 01:07:28;;;;;;;7.05;1.77;;;12.60;74.80;;;;;;5097822;28;20050;-72
2022/10/02 01:09:54;;;;;;;6.47;1.80;;;12.60;74.80;;;;;;5098044;28;20119;-72
2022/10/02 01:12:21;;;;;;;4.72;1.58;;;12.60;74.90;;;;;;5080595;28;20501;-71
2022/10/02 01:14:47;;;;;;;7.38;1.58;;;12.60;74.90;;;;;;5097474;28;20118;-71
2022/10/02 01:17:30;;;;;;;4.50;1.38;;;12.60;74.90;;;;;;5097926;28;20173;-71
2022/10/02 01:19:58;;;;;;;4.57;1.92;;;12.60;75.00;;;;;;5098156;28;20035;-72
2022/10/02 01:22:31;;;;;;;6.32;1.33;;;12.60;75.00;;;;;;5097585;28;20130;-72
2022/10/02 01:24:59;;;;;;;5.35;1.38;;;12.60;75.00;;;;;;5080706;28;20394;-71
2022/10/02 01:27:26;;;;;;;8.00;1.80;;;12.60;75.00;;;;;;5096922;28;20043;-71
2022/10/02 01:30:15;;;;;;;7.65;2.20;;;12.60;75.00;;;;;;5097007;28;20456;-72
2022/10/02 01:32:51;;;;;;;7.93;1.50;;;12.60;75.00;;;;;;5079911;28;20094;-71
2022/10/02 01:35:20;;;;;;;7.70;2.22;;;12.70;75.00;;;;;;5080471;28;20135;-72
2022/10/02 01:37:48;;;;;;;4.32;1.25;;;12.60;74.90;;;;;;5096948;28;20043;-71
2022/10/02 01:40:23;;;;;;;9.52;1.95;;;12.70;74.90;;;;;;5080138;28;20050;-71
2022/10/02 01:42:49;;;;;;;;;;;12.70;74.80;;;;;;5097753;28;20078;-72
2022/10/02 01:45:14;;;;;;;6.53;1.55;;;12.60;74.40;;;;;;5079912;28;20339;-72
2022/10/02 01:47:49;;;;;;;5.75;1.48;;;12.60;74.70;;;;;;5096880;28;20040;-72
2022/10/02 01:50:26;;;;;;;;;;;12.60;74.60;;;;;;5097626;28;20449;-72
2022/10/02 01:53:16;;;;;;;5.45;1.20;;;12.60;74.30;;;;;;5096662;28;19916;-72
2022/10/02 01:56:15;;;;;;;5.03;1.10;;;12.60;74.60;;;;;;5097177;28;20508;-72
2022/10/02 01:59:04;;;;;;;6.35;1.75;;;12.60;74.40;;;;;;5096055;28;20122;-72
2022/10/02 02:01:46;;;;;;;6.43;1.40;;;12.60;74.40;;;;;;5097147;28;20060;-71
2022/10/02 02:04:26;;;;;;;7.05;2.08;;;12.60;74.30;;;;;;5096997;28;20050;-71
2022/10/02 02:06:58;;;;;;;5.45;1.33;;;12.60;74.20;;;;;;5096695;28;20114;-71
2022/10/02 02:09:44;;;;;;;6.97;1.98;;;12.60;74.20;;;;;;5095889;28;20035;-72
2022/10/02 02:12:20;;;;;;;9.20;1.75;;;12.60;74.20;;;;;;5096021;28;20399;-71
2022/10/02 02:14:57;;;;;;;7.50;2.40;;;12.60;74.20;;;;;;5079907;28;20631;-71
2022/10/02 02:17:30;;;;;;;6.78;2.10;;;12.60;74.20;;;;;;5096286;28;20047;-71
2022/10/02 02:20:14;;;;;;;8.82;2.15;;;12.60;74.20;;;;;;5079686;28;20601;-71
2022/10/02 02:22:50;;;;;;;12.20;2.38;;;12.60;74.20;;;;;;5096565;28;20042;-71
2022/10/02 02:25:21;;;;;;;6.75;1.80;;;12.60;74.20;;;;;;5083217;28;20048;-71
2022/10/02 02:27:55;;;;;;;6.63;1.90;;;12.50;74.20;;;;;;5095909;28;20079;-72
2022/10/02 02:30:21;;;;;;;6.97;2.05;;;12.60;74.40;;;;;;5096210;28;20491;-71
2022/10/02 02:32:59;;;;;;;7.97;2.30;;;12.50;74.30;;;;;;5096207;28;20485;-72
2022/10/02 02:35:30;;;;;;;7.70;2.20;;;12.50;74.40;;;;;;5093306;28;20380;-72
2022/10/02 02:38:03;;;;;;;10.05;2.65;;;12.50;74.50;;;;;;5091282;28;20367;-71
2022/10/02 02:40:31;;;;;;;11.50;2.53;;;12.50;74.60;;;;;;5096298;28;20570;-71
2022/10/02 02:43:06;;;;;;;8.60;2.60;;;12.50;74.70;;;;;;5095518;28;20121;-71
2022/10/02 02:45:41;;;;;;;6.72;1.80;;;12.50;74.80;;;;;;5096215;28;20495;-71
2022/10/02 02:48:25;;;;;;;10.02;2.17;;;12.50;74.90;;;;;;5095829;28;20501;-71
2022/10/02 02:50:59;;;;;;;10.60;1.92;;;12.50;75.00;;;;;;5095997;28;20044;-71
2022/10/02 02:53:43;;;;;;;11.10;2.13;;;12.50;75.10;;;;;;5083790;28;20665;-71
2022/10/02 02:56:13;;;;;;;8.05;1.60;;;12.50;75.20;;;;;;5095603;28;20047;-71
2022/10/02 02:58:42;;;;;;;10.35;2.30;;;12.50;75.30;;;;;;5095745;28;20100;-72
2022/10/02 03:01:08;;;;;;;8.70;1.85;;;12.40;75.30;;;;;;5078874;28;20036;-72
2022/10/02 03:03:34;;;;;;;9.45;2.17;;;12.50;75.50;;;;;;5078812;28;20084;-71
2022/10/02 03:06:16;;;;;;;10.20;2.17;;;12.50;75.50;;;;;;5095551;28;20044;-71
2022/10/02 03:08:42;;;;;;;7.57;2.00;;;12.50;75.60;;;;;;5095231;28;20047;-71
2022/10/02 03:11:30;;;;;;;10.85;2.85;;;12.40;75.50;;;;;;5078432;28;20061;-71
2022/10/02 03:14:10;;;;;;;10.65;3.03;;;12.50;75.60;;;;;;5095327;28;20035;-72
2022/10/02 03:16:57;;;;;;;8.35;2.45;;;12.40;75.50;;;;;;5095284;28;20042;-72
2022/10/02 03:19:33;;;;;;;8.88;2.20;;;12.40;75.60;;;;;;5095090;28;20498;-71
2022/10/02 03:22:35;;;;;;;8.45;2.17;;;12.40;75.50;;;;;;5094752;28;20036;-72
2022/10/02 03:25:09;;;;;;;6.55;1.38;;;12.40;75.50;;;;;;5095087;28;20035;-71
2022/10/02 03:27:46;;;;;;;9.30;1.75;;;12.40;75.50;;;;;;5095144;28;20126;-72
2022/10/02 03:30:14;;;;;;;7.78;1.80;;;12.40;75.40;;;;;;5095074;28;20044;-72
2022/10/02 03:32:44;;;;;;;7.40;1.80;;;12.40;75.40;;;;;;5095449;28;20031;-72
2022/10/02 03:35:12;;;;;;;7.43;1.52;;;12.40;75.30;;;;;;5095018;28;20115;-72
2022/10/02 03:37:47;;;;;;;6.20;2.45;;;12.40;75.30;;;;;;5094488;28;20042;-72
2022/10/02 03:40:13;;;;;;;4.78;1.48;;;12.40;75.20;;;;;;5095016;28;20047;-72
2022/10/02 03:42:39;;;;;;;4.85;1.40;;;12.40;75.10;;;;;;5078768;28;20148;-72
2022/10/02 03:45:05;;;;;;;6.72;1.58;;;12.30;75.10;;;;;;5095158;28;20043;-72
2022/10/02 03:47:31;;;;;;;9.60;2.25;;;12.40;75.10;;;;;;5078063;28;20051;-72
2022/10/02 03:49:56;;;;;;;8.48;1.50;;;12.40;75.00;;;;;;5094797;28;20035;-72
2022/10/02 03:52:22;;;;;;;4.75;1.30;;;12.40;75.00;;;;;;5077672;28;20039;-72
2022/10/02 03:54:54;;;;;;;8.15;1.73;;;12.40;75.00;;;;;;5077859;28;20032;-72
2022/10/02 03:57:23;;;;;;;9.55;1.80;;;12.30;75.00;;;;;;5095274;28;20043;-72
2022/10/02 04:00:08;;;;;;;7.28;1.77;;;12.30;75.00;;;;;;5077930;28;20043;-72
2022/10/02 04:02:53;;;;;;;10.48;1.70;;;12.40;75.10;;;;;;5078483;28;20418;-72
2022/10/02 04:05:21;;;;;;;8.40;1.67;;;12.30;75.10;;;;;;5094826;28;20441;-72
2022/10/02 04:07:51;;;;;;;6.60;1.63;;;12.30;75.10;;;;;;5094558;28;20040;-72
2022/10/02 04:10:31;;;;;;;6.22;1.42;;;12.30;75.10;;;;;;5094876;28;20551;-72
2022/10/02 04:13:11;;;;;;;6.90;1.30;;;12.30;75.10;;;;;;5094805;28;20047;-72
2022/10/02 04:16:17;;;;;;;9.02;1.85;;;12.30;75.10;;;;;;5094820;28;20055;-72
2022/10/02 04:18:55;;;;;;;8.60;1.33;;;12.30;75.00;;;;;;5094571;28;20099;-72
2022/10/02 04:21:46;;;;;;;11.52;1.70;;;12.30;75.10;;;;;;5091298;28;20039;-72
2022/10/02 04:24:38;;;;;;;8.70;1.70;;;12.30;75.10;;;;;;5094367;28;20039;-72
2022/10/02 04:27:27;;;;;;;10.15;2.13;;;12.30;75.20;;;;;;5094459;28;20048;-72
2022/10/02 04:30:02;;;;;;;6.75;1.70;;;12.30;75.30;;;;;;5071646;28;20100;-72
2022/10/02 04:32:33;;;;;;;6.70;1.70;;;12.30;75.30;;;;;;5097027;28;20100;-72
2022/10/02 04:34:59;;;;;;;4.15;1.63;;;12.30;75.40;;;;;;5098298;28;20593;-72
2022/10/02 04:37:31;;;;;;;5.32;1.58;;;12.30;75.40;;;;;;5098057;28;20126;-72
2022/10/02 04:40:26;;;;;;;9.02;1.88;;;12.30;75.40;;;;;;5098378;28;20039;-72
2022/10/02 04:42:59;;;;;;;;;;;12.30;75.20;;;;;;5011245;28;20056;-72
2022/10/02 04:45:39;;;;;;;6.93;2.03;;;12.20;75.10;;;;;;5098208;28;20034;-72
2022/10/02 04:48:30;;;;;;;6.97;1.85;;;12.20;75.40;;;;;;5088261;28;20035;-71
2022/10/02 04:51:25;;;;;;;6.72;1.52;;;12.20;75.40;;;;;;5097772;28;20067;-71
2022/10/02 04:54:12;;;;;;;7.28;1.80;;;12.20;75.50;;;;;;5098492;28;20043;-71
2022/10/02 04:56:54;;;;;;;10.23;2.08;;;12.20;75.50;;;;;;5077961;28;20040;-71
2022/10/02 04:59:48;;;;;;;6.78;1.95;;;12.20;75.40;;;;;;5061612;28;20039;-72
2022/10/02 05:02:26;;;;;;;10.63;1.73;;;12.20;75.50;;;;;;5095953;28;20050;-72
2022/10/02 05:05:18;;;;;;;12.30;2.58;;;12.20;75.50;;;;;;5081027;28;20436;-72
2022/10/02 05:07:53;;;;;;;7.95;1.60;;;12.20;75.40;;;;;;5097764;28;20044;-71
2022/10/02 05:10:24;;;;;;;6.50;1.45;;;12.20;75.60;;;;;;5098004;28;20031;-71
2022/10/02 05:13:21;;;;;;;10.93;1.58;;;12.10;75.60;;;;;;5097768;28;20044;-71
2022/10/02 05:16:11;;;;;;;12.50;2.38;;;12.20;75.50;;;;;;5087466;28;20036;-71
2022/10/02 05:19:15;;;;;;;6.47;1.75;;;12.10;75.60;;;;;;5077641;28;20071;-71
2022/10/02 05:22:07;;;;;;;8.27;1.67;;;12.10;75.60;;;;;;5091254;28;20096;-71
2022/10/02 05:24:47;;;;;;;7.10;1.85;;;12.10;75.60;;;;;;5097595;28;20475;-71
2022/10/02 05:27:34;;;;;;;11.93;1.98;;;12.10;76.20;;;;;;5080027;28;20399;-71
2022/10/02 05:30:16;;;;;;;9.77;2.30;;;12.10;75.80;;;;;;5097394;28;20075;-71
2022/10/02 05:32:50;;;;;;;8.50;2.20;;;12.10;75.80;;;;;;5080575;28;20043;-71
2022/10/02 05:35:19;;;;;;;10.18;1.85;;;12.10;75.80;;;;;;5080504;28;20834;-71
2022/10/02 05:38:09;;;;;;;10.25;2.67;;;12.10;75.90;;;;;;5097138;28;20043;-71
2022/10/02 05:40:47;;;;;;;8.43;2.05;;;12.10;75.90;;;;;;5080232;28;20039;-71
2022/10/02 05:43:23;;;;;;;9.50;2.00;;;12.10;75.90;;;;;;5095887;28;20039;-71
2022/10/02 05:45:57;;;;;;;7.90;2.30;;;12.10;76.00;;;;;;5097318;28;20040;-71
2022/10/02 05:48:25;;;;;;;;;;;12.10;75.90;;;;;;5097746;28;20043;-71
2022/10/02 05:50:58;;;;;;;8.40;2.17;;;12.10;75.60;;;;;;5096654;28;19916;-71
2022/10/02 05:53:37;;;;;;;11.45;2.40;;;12.10;75.90;;;;;;5076948;28;20078;-71
2022/10/02 05:56:15;;;;;;;10.38;2.03;;;12.10;76.00;;;;;;5093975;28;20036;-71
2022/10/02 05:59:12;;;;;;;9.30;2.30;;;12.00;76.00;;;;;;5097201;28;20039;-71
2022/10/02 06:01:46;;;;;;;8.48;1.48;;;12.10;76.00;;;;;;5091269;28;20083;-71
2022/10/02 06:04:43;;;;;;;8.75;2.10;;;12.00;76.10;;;;;;5083099;28;20123;-71
2022/10/02 06:07:13;;;;;;;11.48;1.98;;;12.10;76.00;;;;;;5090346;28;20056;-71
2022/10/02 06:09:50;;;;;;;14.27;2.75;;;12.00;76.10;;;;;;5096262;28;20566;-71
2022/10/02 06:12:53;;;;;;;9.95;2.00;;;12.00;76.20;;;;;;5096627;28;20044;-71
2022/10/02 06:15:22;;;;;;;8.07;2.22;;;12.10;76.20;;;;;;5087594;28;20050;-71
2022/10/02 06:18:11;;;;;;;10.18;2.35;;;12.10;76.40;;;;;;5096551;28;20044;-71
2022/10/02 06:20:49;;;;;;;10.30;2.58;;;12.10;76.50;;;;;;5096075;28;20043;-71
2022/10/02 06:23:19;;;;;;;7.68;2.45;;;12.00;76.60;;;;;;5096089;28;20076;-71
2022/10/02 06:26:08;;;;;;;10.88;2.97;;;12.10;76.70;;;;;;5096407;28;20118;-70
2022/10/02 06:28:39;;;;;;;8.25;2.05;;;12.10;76.70;;;;;;5095874;28;20470;-71
2022/10/02 06:31:26;;;;;;;11.40;2.30;;;12.10;76.80;;;;;;5095957;28;20372;-71
2022/10/02 06:33:52;;;;;;;7.45;2.20;;;12.10;76.90;;;;;;5080197;28;20372;-71
2022/10/02 06:36:26;;;;;;;13.07;2.78;;;12.10;76.90;;;;;;5095874;28;20035;-71
2022/10/02 06:38:52;;;;;;;;;;;12.20;77.10;;;;;;5096479;28;20046;-71
2022/10/02 06:41:53;;;;;;;8.73;2.10;;;12.20;76.70;;;;;;5096127;28;19916;-71
2022/10/02 06:44:26;;;;;;;10.63;2.03;;;12.20;77.00;;;;;;5078647;28;20118;-71
2022/10/02 06:47:14;;;;;;;10.70;2.08;;;12.20;77.20;;;;;;5078848;28;20027;-71
2022/10/02 06:50:14;;;;;;;12.02;2.08;;;12.20;77.20;;;;;;5096038;28;20043;-71
2022/10/02 06:53:11;;;;;;;9.82;2.40;;;12.30;77.50;;;;;;5095942;28;20035;-71
2022/10/02 06:56:04;;;;;;;13.15;2.38;;;12.30;77.60;;;;;;5094361;28;20075;-71
2022/10/02 06:59:04;;;;;;;10.48;2.47;;;12.30;77.70;;;;;;5094928;28;20462;-71
2022/10/02 07:01:46;;;;;;;9.23;1.90;;;12.40;77.80;;;;;;5086045;28;20117;-71
2022/10/02 07:04:21;;;;;;;12.48;2.58;;;12.40;77.90;;;;;;5089079;28;20042;-71
2022/10/02 07:06:56;;;;;;;11.27;2.67;;;12.40;78.00;;;;;;5073754;28;20159;-71
2022/10/02 07:09:35;;;;;;;11.63;2.45;;;12.50;78.00;;;;;;5091943;28;20110;-71
2022/10/02 07:12:19;;;;;;;15.50;2.88;;;12.50;78.10;;;;;;5074372;28;20074;-71
2022/10/02 07:15:03;;;;;;;12.70;2.97;;;12.60;78.30;;;;;;5091777;28;20031;-72
2022/10/02 07:17:31;;;;;;;9.83;1.93;;;12.60;78.40;;;;;;5091170;28;20286;-71
2022/10/02 07:20:02;;;;;;;9.95;2.78;;;12.60;78.40;;;;;;5073425;28;20292;-72
2022/10/02 07:22:49;;;;;;;10.98;2.13;;;12.70;78.80;;;;;;5091733;28;20031;-71
2022/10/02 07:25:49;;;;;;;7.90;1.92;;;12.80;79.00;;;;;;5091170;28;20096;-72
2022/10/02 07:28:30;;;;;;;13.57;2.63;;;12.90;79.10;;;;;;5091596;28;20108;-72
2022/10/02 07:31:33;;;;;;;10.05;2.65;;;12.90;79.00;;;;;;5089666;28;20101;-72
2022/10/02 07:34:31;;;;;;;10.70;2.45;;;13.00;78.90;;;;;;5090859;28;20142;-72
2022/10/02 07:37:03;;;;;;;13.90;2.47;;;13.10;79.00;;;;;;5091489;28;20032;-72
2022/10/02 07:39:54;;;;;;;10.88;2.67;;;13.10;79.10;;;;;;5091278;28;20350;-72
2022/10/02 07:42:29;;;;;;;10.20;2.28;;;13.20;79.10;;;;;;5090742;28;20512;-70
2022/10/02 07:45:15;;;;;;;9.88;2.20;;;13.20;78.90;;;;;;5090521;28;20042;-76
2022/10/02 07:48:02;;;;;;;8.15;2.65;;;13.30;78.90;;;;;;5091245;28;20090;-72
2022/10/02 07:50:38;;;;;;;15.23;3.65;;;13.30;78.80;;;;;;5090674;28;20035;-72
2022/10/02 07:53:31;;;;;;;8.45;2.50;;;13.40;79.00;;;;;;5090774;28;20036;-72
2022/10/02 07:55:57;;;;;;;9.00;2.33;;;13.50;79.20;;;;;;5094163;28;20084;-72
2022/10/02 07:59:09;;;;;;;14.05;2.60;;;13.60;79.30;;;;;;5094148;28;20049;-72
2022/10/02 08:01:39;;;;;;;10.05;2.53;;;13.70;79.10;;;;;;4990827;28;20050;-72
2022/10/02 08:04:11;;;;;;;11.27;1.92;;;13.80;79.50;;;;;;5008773;28;20045;-72
2022/10/02 08:06:37;;;;;;;6.75;1.58;;;13.90;79.50;;;;;;5050638;28;20052;-72
2022/10/02 08:09:11;;;;;;;9.38;2.22;;;14.10;79.30;;;;;;5079355;28;20069;-72
2022/10/02 08:11:46;;;;;;;11.98;2.35;;;14.20;79.00;;;;;;5099170;28;20043;-72
2022/10/02 08:14:18;;;;;;;9.10;2.17;;;14.50;79.10;;;;;;5098727;28;20408;-72
2022/10/02 08:16:49;;;;;;;10.75;2.97;;;14.70;78.70;;;;;;5099094;28;20069;-72
2022/10/02 08:19:38;;;;;;;11.27;2.17;;;14.90;78.20;;;;;;5098914;28;20035;-72
2022/10/02 08:22:27;;;;;;;8.52;1.85;;;15.20;77.20;;;;;;5098718;28;20031;-72
2022/10/02 08:24:57;;;;;;;11.55;2.30;;;15.60;76.50;;;;;;5062145;28;20044;-72
2022/10/02 08:27:48;;;;;;;14.13;2.70;;;15.80;75.90;;;;;;5079466;28;20075;-72
2022/10/02 08:30:14;;;;;;;10.00;2.53;;;16.10;74.60;;;;;;5095405;28;20043;-72
2022/10/02 08:32:40;;;;;;;7.13;1.98;;;16.40;74.00;;;;;;5098409;28;20081;-72
2022/10/02 08:35:14;;;;;;;10.85;2.80;;;16.60;73.00;;;;;;5099049;28;20032;-72
2022/10/02 08:37:41;;;;;;;;;;;16.80;71.80;;;;;;5097556;28;20040;-72
2022/10/02 08:40:27;;;;;;;10.45;2.35;;;17.00;72.10;;;;;;5078515;28;19959;-72
2022/10/02 08:43:12;;;;;;;10.07;2.00;;;17.30;72.00;;;;;;5064768;28;20069;-73
2022/10/02 08:45:56;;;;;;;8.40;2.25;;;17.50;70.30;;;;;;5078569;28;20048;-72
2022/10/02 08:48:34;;;;;;;8.45;2.05;;;17.80;69.00;;;;;;5081246;28;20065;-74
2022/10/02 08:51:05;;;;;;;8.70;1.70;;;17.90;68.10;;;;;;5098885;28;20044;-74
2022/10/02 08:54:08;;;;;;;7.60;2.17;;;18.10;67.20;;;;;;5098038;28;20467;-74
2022/10/02 08:57:17;;;;;;;12.05;2.53;;;18.30;66.10;;;;;;5098520;28;20391;-73
2022/10/02 09:00:07;;;;;;;13.75;2.40;;;18.40;65.50;;;;;;5081379;28;20410;-74
2022/10/02 09:03:08;;;;;;;9.43;2.15;;;18.50;65.10;;;;;;5098328;28;20595;-73
2022/10/02 09:06:05;;;;;;;12.23;2.67;;;18.70;64.70;;;;;;5061292;28;20075;-73
2022/10/02 09:08:57;;;;;;;13.98;3.10;;;18.80;64.10;;;;;;5085730;28;20035;-74
2022/10/02 09:12:00;;;;;;;9.55;2.53;;;18.90;63.60;;;;;;5088703;28;20105;-74
2022/10/02 09:14:41;;;;;;;8.05;2.58;;;18.90;62.80;;;;;;5098161;28;20527;-73
2022/10/02 09:17:31;;;;;;;12.40;2.78;;;19.00;63.00;;;;;;5097586;28;20517;-71
2022/10/02 09:20:12;;;;;;;11.80;2.60;;;19.00;62.70;;;;;;5080775;28;20089;-71
2022/10/02 09:22:59;;;;;;;9.10;2.20;;;19.10;62.40;;;;;;5097582;28;20500;-71
2022/10/02 09:25:30;;;;;;;12.07;2.30;;;19.10;61.90;;;;;;5097419;28;20044;-71
2022/10/02 09:28:17;;;;;;;8.90;2.28;;;19.00;61.30;;;;;;5097289;28;20571;-71
2022/10/02 09:31:14;;;;;;;8.38;2.50;;;19.10;60.90;;;;;;5096874;28;20075;-71
2022/10/02 09:33:46;;;;;;;10.95;2.42;;;19.10;61.10;;;;;;5097400;28;20040;-71
2022/10/02 09:36:34;;;;;;;11.70;2.30;;;19.10;61.80;;;;;;5080694;28;20036;-71
2022/10/02 09:39:28;;;;;;;12.07;3.05;;;19.10;60.20;;;;;;5087644;28;20046;-71
2022/10/02 09:42:13;;;;;;;11.25;2.78;;;19.00;59.70;;;;;;5097458;28;20050;-71
2022/10/02 09:45:17;;;;;;;10.13;2.42;;;18.90;59.50;;;;;;5080287;28;20032;-71
2022/10/02 09:48:11;;;;;;;9.83;2.30;;;18.80;59.00;;;;;;5080394;28;20051;-71
2022/10/02 09:51:03;;;;;;;13.68;3.35;;;18.70;59.60;;;;;;5080515;28;20278;-72
2022/10/02 09:53:56;;;;;;;8.80;2.38;;;18.70;59.60;;;;;;5096854;28;20046;-72
2022/10/02 09:56:49;;;;;;;12.13;2.33;;;18.60;59.70;;;;;;5097127;28;20042;-71
2022/10/02 09:59:30;;;;;;;9.50;2.35;;;18.60;60.20;;;;;;5096959;28;20036;-71
2022/10/02 10:02:23;;;;;;;9.90;1.95;;;18.60;59.80;;;;;;5097159;28;20040;-71
2022/10/02 10:05:11;;;;;;;9.23;2.08;;;18.60;59.00;;;;;;5096125;28;20495;-72
2022/10/02 10:07:52;;;;;;;6.75;1.70;;;18.60;58.80;;;;;;5096713;28;20040;-72
2022/10/02 10:10:59;;;;;;;8.93;2.05;;;18.50;58.20;;;;;;5096308;28;20031;-72
2022/10/02 10:13:40;;;;;;;11.18;1.92;;;18.50;58.30;;;;;;5096090;28;20437;-71
2022/10/02 10:16:15;;;;;;;5.95;2.20;;;18.40;57.50;;;;;;5079567;28;20042;-71
2022/10/02 10:18:46;;;;;;;12.95;2.70;;;18.30;57.30;;;;;;5078626;28;20055;-70
2022/10/02 10:21:28;;;;;;;8.00;1.83;;;18.20;56.90;;;;;;5079335;28;20039;-70
2022/10/02 10:24:12;;;;;;;8.65;1.70;;;18.10;57.20;;;;;;5096051;28;20036;-72
2022/10/02 10:26:56;;;;;;;11.23;2.10;;;18.10;57.80;;;;;;5089244;28;20044;-69
2022/10/02 10:30:12;;;;;;;9.35;2.08;;;18.10;58.10;;;;;;5087991;28;20075;-70
2022/10/02 10:33:12;;;;;;;8.15;1.60;;;18.10;58.40;;;;;;5062034;28;20105;-70
2022/10/02 10:36:04;;;;;;;8.05;1.90;;;18.00;58.10;;;;;;5096074;28;20403;-71
2022/10/02 10:38:58;;;;;;;7.13;2.58;;;18.00;58.80;;;;;;5095615;28;20482;-71
2022/10/02 10:41:35;;;;;;;;;;;18.00;58.80;;;;;;5074514;28;20070;-70
2022/10/02 10:44:22;;;;;;;8.85;2.33;;;18.00;59.20;;;;;;5079210;28;20010;-70
2022/10/02 10:47:17;;;;;;;11.32;2.75;;;17.90;58.80;;;;;;5093582;28;20067;-70
2022/10/02 10:50:02;;;;;;;;;;;17.90;58.40;;;;;;5079114;28;20566;-71
2022/10/02 10:52:53;;;;;;;11.48;2.17;;;17.90;58.70;;;;;;5095950;28;19915;-70
2022/10/02 10:55:28;;;;;;;9.25;1.77;;;17.70;58.80;;;;;;5080317;28;20035;-71
2022/10/02 10:58:20;;;;;;;10.45;2.10;;;17.70;59.00;;;;;;5095961;28;20050;-71
2022/10/02 11:01:15;;;;;;;8.68;2.30;;;17.70;59.30;;;;;;5052938;28;20085;-71
2022/10/02 11:04:12;;;;;;;9.95;2.03;;;17.70;59.80;;;;;;5095785;28;20043;-71
2022/10/02 11:06:59;;;;;;;9.93;2.35;;;17.80;60.50;;;;;;5078317;28;20126;-70
2022/10/02 11:10:04;;;;;;;9.75;2.35;;;17.80;60.50;;;;;;5078431;28;20123;-70
2022/10/02 11:12:48;;;;;;;10.07;1.98;;;17.80;59.50;;;;;;5075664;28;20104;-70
2022/10/02 11:15:16;;;;;;;;;;;17.80;59.30;;;;;;5068243;28;20509;-70
2022/10/02 11:18:07;;;;;;;10.20;2.65;;;17.70;58.80;;;;;;5095711;28;19919;-70
2022/10/02 11:20:57;;;;;;;6.97;1.98;;;17.70;58.30;;;;;;5095467;28;20394;-70
2022/10/02 11:23:58;;;;;;;10.00;2.65;;;17.70;58.40;;;;;;5087162;28;20043;-70
2022/10/02 11:26:33;;;;;;;11.23;2.20;;;17.60;58.50;;;;;;5048321;28;20075;-70
2022/10/02 11:29:33;;;;;;;7.90;1.90;;;17.60;58.60;;;;;;5078316;28;20063;-69
2022/10/02 11:32:18;;;;;;;9.15;2.35;;;17.50;58.70;;;;;;5095120;28;20047;-70
2022/10/02 11:35:15;;;;;;;11.38;2.30;;;17.40;58.70;;;;;;5094758;28;20039;-72
2022/10/02 11:38:15;;;;;;;12.02;1.88;;;17.40;58.50;;;;;;5090821;28;20074;-71
2022/10/02 11:41:19;;;;;;;12.25;2.75;;;17.30;58.30;;;;;;5091529;28;20043;-71
2022/10/02 11:43:45;;;;;;;10.43;2.60;;;17.30;58.60;;;;;;5094277;28;20526;-71
2022/10/02 11:46:40;;;;;;;10.88;1.98;;;17.20;58.80;;;;;;5091665;28;20039;-70
2022/10/02 11:49:39;;;;;;;10.73;2.17;;;17.30;58.60;;;;;;5077207;28;20071;-71
2022/10/02 11:52:13;;;;;;;12.43;3.05;;;17.40;58.60;;;;;;5086190;28;20036;-72
2022/10/02 11:55:21;;;;;;;13.68;3.10;;;17.50;58.90;;;;;;5094488;28;20375;-71
2022/10/02 11:58:07;;;;;;;11.23;1.83;;;17.50;58.80;;;;;;5089463;28;20112;-71
2022/10/02 12:00:55;;;;;;;9.55;2.47;;;17.70;58.80;;;;;;5077580;28;20047;-71
2022/10/02 12:03:28;;;;;;;10.32;2.80;;;17.70;58.50;;;;;;5093511;28;20067;-73
2022/10/02 12:05:56;;;;;;;8.95;2.47;;;17.80;58.40;;;;;;5077309;28;20035;-72
2022/10/02 12:08:42;;;;;;;12.73;2.13;;;17.90;57.40;;;;;;5091817;28;20035;-73
2022/10/02 12:11:33;;;;;;;9.00;1.90;;;18.00;56.30;;;;;;5062158;28;20028;-74
2022/10/02 12:14:22;;;;;;;6.32;1.65;;;18.00;56.30;;;;;;5080274;28;20043;-73
2022/10/02 12:16:48;;;;;;;9.15;1.98;;;18.10;56.00;;;;;;5077441;28;20040;-74
2022/10/02 12:29:24;;;;;;;10.18;2.50;;;18.30;55.90;;;;;;5077669;28;20055;-74
2022/10/02 12:32:11;;;;;;;9.85;2.20;;;18.40;55.80;;;;;;5056513;28;20050;-74
2022/10/02 12:34:48;;;;;;;9.50;2.00;;;18.40;55.80;;;;;;5093479;28;20094;-74
2022/10/02 12:37:20;;;;;;;8.75;2.10;;;18.40;55.60;;;;;;5085875;28;20432;-74
2022/10/02 12:40:00;;;;;;;9.75;1.75;;;18.40;54.30;;;;;;5093281;28;20039;-73
2022/10/02 12:42:52;;;;;;;9.82;1.95;;;18.30;54.10;;;;;;5093821;28;20494;-73
2022/10/02 12:45:35;;;;;;;10.57;2.28;;;18.30;54.40;;;;;;5075795;28;20039;-73
2022/10/02 12:48:09;;;;;;;8.45;1.77;;;18.20;54.50;;;;;;5091215;28;20122;-74
2022/10/02 12:50:40;;;;;;;;;;;18.20;55.10;;;;;;5089811;28;20114;-73
2022/10/02 12:53:38;;;;;;;11.52;2.15;;;18.20;56.10;;;;;;5090300;28;19919;-73
2022/10/02 12:56:36;;;;;;;9.75;2.08;;;18.20;55.90;;;;;;5089998;28;20119;-73
2022/10/02 12:59:08;;;;;;;9.15;1.88;;;18.20;55.30;;;;;;5061194;28;20044;-73
2022/10/02 13:02:03;;;;;;;8.57;1.75;;;18.30;55.70;;;;;;5097969;28;20039;-73
2022/10/02 13:04:36;;;;;;;8.85;2.22;;;18.30;55.50;;;;;;5096018;28;20096;-73
2022/10/02 13:07:34;;;;;;;10.83;2.10;;;18.30;55.40;;;;;;5080390;28;20040;-73
2022/10/02 13:10:15;;;;;;;9.93;2.70;;;18.30;56.30;;;;;;5097584;28;20681;-73
2022/10/02 13:12:53;;;;;;;11.57;2.22;;;18.30;56.90;;;;;;5084445;28;20039;-73
2022/10/02 13:15:36;;;;;;;11.13;2.20;;;18.20;57.30;;;;;;5097034;28;20043;-73
2022/10/02 13:18:26;;;;;;;11.55;2.45;;;18.20;57.30;;;;;;5097528;28;20048;-73
2022/10/02 13:20:52;;;;;;;9.15;1.75;;;18.20;57.70;;;;;;5097726;28;20429;-74
2022/10/02 13:23:31;;;;;;;9.95;2.13;;;18.10;57.90;;;;;;5105235;28;20035;-74
2022/10/02 13:26:14;;;;;;;8.95;2.35;;;18.10;58.20;;;;;;5096028;28;20047;-74
2022/10/02 13:28:52;;;;;;;10.93;1.98;;;18.10;58.20;;;;;;5076787;28;20035;-74
2022/10/02 13:31:52;;;;;;;9.63;2.53;;;18.10;58.20;;;;;;5098876;28;20379;-73
2022/10/02 13:34:41;;;;;;;9.13;1.88;;;18.10;57.80;;;;;;5096113;28;20043;-73
2022/10/02 13:37:33;;;;;;;10.32;1.45;;;18.10;56.50;;;;;;5095213;28;20097;-73
2022/10/02 13:40:24;;;;;;;10.68;2.40;;;18.10;56.00;;;;;;5081163;27;20494;-74
2022/10/02 13:43:20;;;;;;;8.18;1.65;;;18.10;56.20;;;;;;5093845;28;20086;-73
2022/10/02 13:46:02;;;;;;;7.13;1.83;;;18.00;56.20;;;;;;5095616;28;20387;-73
2022/10/02 13:49:05;;;;;;;8.90;1.92;;;18.10;56.60;;;;;;5094032;28;20028;-73
2022/10/02 13:51:56;;;;;;;7.80;1.98;;;18.00;56.60;;;;;;5092104;28;20074;-74
2022/10/02 13:54:57;;;;;;;7.75;1.40;;;18.10;56.20;;;;;;5079345;28;20039;-73
2022/10/02 13:57:35;;;;;;;12.52;2.60;;;18.00;56.40;;;;;;5096566;28;20055;-74
2022/10/02 14:00:09;;;;;;;7.25;2.05;;;18.00;56.30;;;;;;5085381;28;20035;-74
2022/10/02 14:03:11;;;;;;;9.50;1.80;;;18.00;55.90;;;;;;5075742;28;20039;-77
2022/10/02 14:05:50;;;;;;;7.93;2.08;;;18.00;55.60;;;;;;5110044;27;20047;-83
2022/10/02 14:08:34;;;;;;;8.93;2.05;;;18.00;55.10;;;;;;5075436;28;20035;-75
2022/10/02 14:11:21;;;;;;;10.77;2.15;;;17.90;55.10;;;;;;5091378;28;20058;-75